Bookmark and Share
Track history (hours):
 

Johnny James

More information available from US FCC via Universal Licensing System and Coast Guard Vessel Documentation Center.

Last reported at 2014-Apr-16 02:31 UTC. Time now 2014-Apr-16 22:32 UTC.
Position N 29°31' W 094°53'.

Length 35 m; draft 3 m.

Type: Towing. MMSI: 367005220.

NotesDate/timePositionNaut miles runAvg speedWind from/ knotsBaromVisibWave heightAir tempDewpointWater temp
2014-Apr-16 02:31N 29°31' W 094°53'5 5.5
2014-Apr-16 01:33N 29°36' W 094°57'6 5.6
2014-Apr-16 00:33N 29°41' W 094°59'4 4.5
2014-Apr-15 23:33N 29°44' W 095°03'3 2.2
2014-Apr-15 22:21N 29°45' W 095°06'0 0.3
2014-Apr-15 21:33N 29°46' W 095°06'0 0.1
2014-Apr-15 20:23N 29°45' W 095°06'0 0.1
2014-Apr-15 19:24N 29°45' W 095°06'0 0.0
2014-Apr-15 18:29N 29°45' W 095°06'1 0.4
2014-Apr-15 17:09N 29°46' W 095°05'1 0.8
2014-Apr-15 16:31N 29°45' W 095°06'1 0.0
2014-Apr-14 06:32N 29°45' W 095°06'1 0.0
2014-Apr-12 14:23N 29°45' W 095°06'0 0.0
2014-Apr-12 13:14N 29°45' W 095°06'0 0.0
2014-Apr-12 12:32N 29°45' W 095°06'0 0.0
2014-Apr-12 04:19N 29°45' W 095°06'0 0.2
2014-Apr-12 03:22N 29°46' W 095°06'0 0.0
2014-Apr-12 02:33N 29°46' W 095°06'0 0.0
2014-Apr-12 00:29N 29°46' W 095°06'0 0.1
2014-Apr-11 23:33N 29°46' W 095°06'0 0.0
2014-Apr-11 22:32N 29°46' W 095°06'1 0.7
2014-Apr-11 21:13N 29°46' W 095°07'1 1.4
2014-Apr-11 20:33N 29°46' W 095°06'0 0.0
2014-Apr-11 19:30N 29°46' W 095°06'0 0.3
2014-Apr-11 18:33N 29°46' W 095°06'0 0.0
2014-Apr-11 17:33N 29°46' W 095°06'0 0.0
2014-Apr-11 16:33N 29°46' W 095°06'0 0.0
2014-Apr-11 15:33N 29°46' W 095°06'0 0.0
2014-Apr-11 14:33N 29°46' W 095°06'0 0.0
2014-Apr-11 13:33N 29°46' W 095°06'0 0.0
2014-Apr-11 12:32N 29°46' W 095°06'0 0.0
2014-Apr-11 11:33N 29°46' W 095°06'0 0.0
2014-Apr-11 10:31N 29°46' W 095°06'0 0.0
2014-Apr-11 09:18N 29°46' W 095°06'0 0.0
2014-Apr-11 08:33N 29°46' W 095°06'0 0.0
2014-Apr-11 07:32N 29°46' W 095°06'0 0.0
2014-Apr-11 06:22N 29°46' W 095°06'0 0.0
2014-Apr-11 05:30N 29°46' W 095°06'0 0.0
2014-Apr-11 02:25N 29°46' W 095°06'0 0.0
2014-Apr-11 01:30N 29°46' W 095°06'0 0.0
2014-Apr-11 00:33N 29°46' W 095°06'0 0.0
2014-Apr-10 23:30N 29°46' W 095°06'0 0.0
2014-Apr-10 22:30N 29°46' W 095°06'0 0.0
2014-Apr-10 21:32N 29°46' W 095°06'0 0.0
2014-Apr-10 20:33N 29°46' W 095°06'0 0.0
2014-Apr-10 19:32N 29°46' W 095°06'0 0.0
2014-Apr-10 18:33N 29°46' W 095°06'0 0.0
2014-Apr-10 17:33N 29°46' W 095°06'0 0.0
2014-Apr-10 16:33N 29°46' W 095°06'0 0.0
2014-Apr-10 15:32N 29°46' W 095°06'0 0.0
2014-Apr-10 14:29N 29°46' W 095°06'0 0.0
2014-Apr-10 13:27N 29°46' W 095°06'0 0.0
2014-Apr-10 12:33N 29°46' W 095°06'0 0.0
2014-Apr-10 11:29N 29°46' W 095°06'0 0.0
2014-Apr-10 10:23N 29°46' W 095°06'0 0.0
2014-Apr-10 09:30N 29°46' W 095°06'0 0.3
2014-Apr-10 08:32N 29°46' W 095°06'0 0.0
2014-Apr-10 07:22N 29°46' W 095°06'0 0.0
2014-Apr-10 06:30N 29°46' W 095°06'0 0.0
2014-Apr-10 05:33N 29°46' W 095°06'0 0.0
2014-Apr-10 04:33N 29°46' W 095°06'0 0.0
2014-Apr-10 03:32N 29°46' W 095°06'0 0.0
2014-Apr-10 02:33N 29°46' W 095°06'0 0.0
2014-Apr-10 01:33N 29°46' W 095°06'0 0.0
2014-Apr-10 00:33N 29°46' W 095°06'0 0.0
2014-Apr-09 23:33N 29°46' W 095°06'0 0.0
2014-Apr-09 22:32N 29°46' W 095°06'0 0.2
2014-Apr-09 21:33N 29°46' W 095°06'2 2.0
2014-Apr-09 20:33N 29°44' W 095°04'1 0.8
2014-Apr-09 19:33N 29°44' W 095°03'0 0.0
2014-Apr-09 18:33N 29°44' W 095°03'0 0.0
2014-Apr-09 17:14N 29°44' W 095°03'0 0.0
2014-Apr-09 16:32N 29°44' W 095°03'0 0.0
2014-Apr-09 15:33N 29°44' W 095°03'0 0.0
2014-Apr-09 14:25N 29°44' W 095°03'0 0.0
2014-Apr-09 13:32N 29°44' W 095°03'0 0.0
2014-Apr-09 12:33N 29°44' W 095°03'0 0.0
2014-Apr-09 00:29N 29°44' W 095°03'0 0.0
2014-Apr-08 23:14N 29°44' W 095°03'0 0.5
2014-Apr-08 22:33N 29°44' W 095°03'2 2.4
2014-Apr-08 21:30N 29°45' W 095°06'0 0.0
2014-Apr-08 20:31N 29°45' W 095°06'1 0.7
2014-Apr-08 19:32N 29°46' W 095°05'1 0.1
2014-Apr-08 13:09N 29°45' W 095°06'0 0.0
2014-Apr-08 00:22N 29°45' W 095°06'0 0.0
2014-Apr-07 23:24N 29°45' W 095°06'2 0.9
2014-Apr-07 21:33N 29°47' W 095°05'1 0.6
2014-Apr-07 20:32N 29°47' W 095°04'2 1.7
2014-Apr-07 19:15N 29°46' W 095°06'5 3.1
2014-Apr-07 17:33N 29°42' W 095°01'5 5.4
2014-Apr-07 16:33N 29°38' W 094°58'7 6.6
2014-Apr-07 15:33N 29°32' W 094°54'  

Dump ship's entire track history

sailing weather and tide predictions

Johnny James — WYT8450 — position and weather